Aeroporto :
LOGIN :

Iscrizione | Disclaimer

   EN    FR    IT 

 










Sommario :    VFR   VFR Marginale   IFR   IFR Intensivo   IFR Molto Intensivo
Visibilità : 
Base nubi : 
>= 8 km
>= 3000ft
5 / 8 km
1000 / 3000 ft
1500m / 5 km
500 / 1000 ft
800 / 1500m
200 / 500 ft
< 800m
< 200 ft
Simboli :   Temporali  Nebbia  Neve Forte  Precipitazioni Forti  Vento > 20 kt
SIGMETs :   Varie  Temporali  Ghiacco  Turbolenza  Onda orograficha  Ceneri Vulcaniche






- Altitudine del aeroporto : 935 ft


EBFS - Florennes

ULTIMO METAR :
  • 220655Z 16009KT 9999 FEW009 SCT012 BKN040 06/05 Q1004 GRN GRN TEMPO YLO

METARs OBSOLETI :
  • 220625Z 16010KT 9999 FEW009 SCT012 BKN020 06/05 Q1003 GRN GRN TEMPO YLO
  • 220555Z 15009KT 9999 FEW009 SCT012 BKN020 06/05 Q1003 GRN GRN TEMPO YLO
  • 220553Z 15008KT 9999 FEW009 SCT012 BKN020 06/05 Q1003 GRN GRN TEMPO YLO
  • 220525Z AUTO 14008KT 9999 FEW010/// SCT013/// BKN016/// 06/05 Q1003 GRN
  • 220518Z AUTO 14008KT 9999 FEW011/// SCT014/// BKN017/// 06/05 Q1004 GRN
  • 220513Z AUTO 14008KT 9999 FEW013/// BKN016/// BKN022/// 06/05 Q1003 WHT
  • 220455Z AUTO 15008KT 9999 FEW011/// BKN014/// OVC030/// 06/05 Q1003 GRN
  • 220425Z AUTO 15009KT 9999 FEW009/// SCT013/// BKN038/// 06/05 Q1003 GRN
  • 220418Z AUTO 15008KT 9999 FEW009/// SCT014/// BKN038/// 06/05 Q1004 GRN

TAF TAF EBFS
Valido dal 22 a 07 ore il 22 a 16 ore UTC


220541Z 2207/2216 16010KT 9999 FEW008 SCT012 BKN020
TEMPO 2207/2210 FEW012 SCT020
PROB30
TEMPO 2207/2210 SCT006 BKN010
BECMG 2210/2212 14013KT FEW010 SCT160
TEMPO 2212/2216 FEW220



MetMap, La meteo Aeronautica in un colpo d'occhio ! - Copyright ORBIFLY Dicembre 2007 - Disclaimer

ORBIFLY MET'MAP TEAM :

Programmazione e sviluppo : Alexandra Zaïnal
Concezione e sviluppo : Baudouin d'Aumeries
Co-Programmazione e sviluppo : Marc-Olivier Méhu
Supporto tecnico e logistico : Manuel Goepfert
Aiuto per la traduzione : Arnaldo La Scala

Contatto : metmap@orbifly.com




FONTI E CREDITI :

   NOAA